Terminal Aerodrome Forecast
Issued by NWS

Home | Current Version | Previous Version | Text Only | Print | Product List | Glossary On
Versions: 1 2 3 4 5 6 7 8 9 10 11 12 13 14 15 16 17 18 19
183
FTPA31 PHFO 220520
TAFHLI
TAF
PHLI 220520Z 2206/2306 04025G35KT P6SM SCT020 BKN040
     FM221200 05022G30KT P6SM FEW025 SCT040 BKN200
     FM230000 07022G30KT P6SM FEW025 SCT045 BKN200=

USA.gov is the U.S. government's official web portal to all federal, state and local government web resources and services.